Flight Track Log - Related Links

Times and Time Zones

All times are in EST time to prevent confusion due to time zone crossing. See the EJA396 flight status page for this flight to view local times or setup timezone preferences in your user account.

Time Position Orientation Groundspeed Altitude Reporting Facility
EST Latitude Longitude Course Direction KTS MPH feet Rate Location/Type
Wed 02:05:28 PM 42.9500 -87.9000 144° Southeast 136 157 1,800  Level KMKE
Wed 02:06:22 PM 42.9000 -87.8500 144° Southeast 242 278 5,500 3,514 Climbing KMKE
Wed 02:07:48 PM 42.8242 -87.7428 134° Southeast 316 364 10,000 1,772 Climbing Chicago Center
Wed 02:08:51 PM 42.7428 -87.7247 171° South 314 361 9,900 1,632 Descending Chicago Center
Wed 02:09:53 PM 42.6389 -87.6972 169° South 316 364 13,400 2,565 Climbing Chicago Center
Wed 02:10:55 PM 42.5400 -87.6872 176° South 345 397 15,200 1,694 Climbing Chicago Center
Wed 02:11:57 PM 42.4358 -87.7033 187° South 375 432 16,900 871 Climbing Chicago Center
Wed 02:12:59 PM 42.3286 -87.7225 188° South 388 447 17,000 48 Climbing Chicago Center
Wed 02:14:01 PM 42.2183 -87.7394 186° South 394 453 17,000  Level Chicago Center
Wed 02:15:03 PM 42.1083 -87.7575 187° South 398 458 17,000  Level Chicago Center
Wed 02:16:05 PM 41.9978 -87.7772 188° South 401 461 17,000  Level Chicago Center
Wed 02:17:07 PM 41.8636 -87.7803 181° South 404 465 17,000  Level Chicago Center
Wed 02:18:09 PM 41.7492 -87.7661 175° South 412 474 17,000 -194 Level Chicago Center
Wed 02:19:11 PM 41.6336 -87.7536 175° South 415 478 16,600 -484 Descending Chicago Center
Wed 02:20:13 PM 41.5225 -87.7408 175° South 402 463 16,000 -288 Descending Chicago Center
Wed 02:21:16 PM 41.4125 -87.7286 175° South 394 453 16,000  Level Chicago Center
Wed 02:22:17 PM 41.3014 -87.7158 175° South 395 455 16,000 -244 Level Chicago Center
Wed 02:23:19 PM 41.1906 -87.7033 175° South 398 458 15,500 -1,113 Descending Chicago Center
Wed 02:24:21 PM 41.0642 -87.6897 175° South 383 441 13,700 -1,452 Descending Chicago Center
Wed 02:25:23 PM 40.9639 -87.6775 175° South 367 422 12,500 -1,306 Descending Chicago Center
Wed 02:26:25 PM 40.8678 -87.6653 175° South 352 405 11,000 -1,403 Descending Chicago Center
Wed 02:27:27 PM 40.7806 -87.6544 175° South 313 360 9,600 -1,258 Descending Chicago Center
Wed 02:28:29 PM 40.7056 -87.6461 175° South 273 314 8,400 -1,113 Descending Chicago Center
Wed 02:29:31 PM 40.6339 -87.6378 175° South 261 300 7,300 -1,161 Descending Chicago Center
Wed 02:30:33 PM 40.5497 -87.6278 175° South 255 293 6,000 -1,065 Descending Chicago Center
Wed 02:31:35 PM 40.4822 -87.6186 174° South 248 285 5,100 -871 Descending Chicago Center
Wed 02:32:37 PM 40.4214 -87.5914 161° South 242 278 4,200 -720 Descending Chicago Center
Wed 02:33:40 PM 40.3744 -87.5644 156° South 205 236 3,600 -576 Descending Chicago Center
Wed 02:34:42 PM 40.3278 -87.5411 159° South 187 215 3,000 -629 Descending Chicago Center
Wed 02:35:44 PM 40.2803 -87.5314 171° South 178 205 2,300 -677 Descending Chicago Center

Login

Don't have an account? Register now (free) for customized features, flight alerts, and more!